Terminal Aerodrome Forecast
Issued by NWS

Home | Current Version | Previous Version | Text Only | Print | Product List | Glossary On
Versions: 1 2 3 4 5 6 7 8 9 10 11 12
000
FTUS46 KMTR 040520
TAFSJC
TAF
KSJC 040520Z 0406/0506 VRB04KT P6SM SKC
     FM041200 14008KT P6SM FEW015
     FM041700 29008KT P6SM FEW020
     FM042100 31018G25KT P6SM SKC
     FM050400 31010KT P6SM SKC=

USA.gov is the U.S. government's official web portal to all federal, state and local government web resources and services.